createdAt,value
2023-04-07T00:01:15.627Z,6.93
2023-04-07T00:03:42.311Z,6.96
2023-04-07T00:06:08.839Z,6.99
2023-04-07T00:08:35.223Z,6.92
2023-04-07T00:11:01.916Z,6.91
2023-04-07T00:13:29.525Z,6.89
2023-04-07T00:15:56.564Z,6.89
2023-04-07T00:18:22.981Z,6.87
2023-04-07T00:20:49.336Z,6.89
2023-04-07T00:23:15.829Z,6.90
2023-04-07T00:25:42.359Z,6.93
2023-04-07T00:28:08.754Z,6.90
2023-04-07T00:30:35.155Z,6.88
2023-04-07T00:33:01.747Z,6.94
2023-04-07T00:35:28.198Z,6.96
2023-04-07T00:37:54.528Z,6.91
2023-04-07T00:40:21.225Z,6.83
2023-04-07T00:42:47.572Z,6.83
2023-04-07T00:45:13.967Z,6.83
2023-04-07T00:47:40.594Z,6.90
2023-04-07T00:50:07.718Z,6.89
2023-04-07T00:52:34.145Z,6.84
2023-04-07T00:55:00.833Z,6.74
2023-04-07T00:57:27.413Z,6.78
2023-04-07T00:59:54.327Z,6.80
2023-04-07T01:02:59.395Z,6.77
2023-04-07T01:05:35.285Z,6.77
2023-04-07T01:08:33.544Z,6.74
2023-04-07T01:11:27.194Z,6.79
2023-04-07T01:13:54.359Z,6.77
2023-04-07T01:16:27.052Z,6.68
2023-04-07T01:18:55.220Z,6.60
2023-04-07T01:21:21.559Z,6.58
2023-04-07T01:23:57.298Z,6.66
2023-04-07T01:26:28.143Z,6.67
2023-04-07T01:29:31.448Z,6.57
2023-04-07T01:31:59.284Z,6.53
2023-04-07T01:34:26.085Z,6.52
2023-04-07T01:36:52.611Z,6.45
2023-04-07T01:39:18.985Z,6.40
2023-04-07T01:41:45.493Z,6.30
2023-04-07T01:44:12.049Z,6.37
2023-04-07T01:46:38.474Z,6.28
2023-04-07T01:49:04.933Z,6.28
2023-04-07T01:51:31.672Z,6.28
2023-04-07T01:53:59.000Z,6.22
2023-04-07T01:56:25.585Z,6.25
2023-04-07T01:58:51.962Z,6.33
2023-04-07T02:01:18.388Z,6.30
2023-04-07T02:03:49.357Z,6.14
2023-04-07T02:06:18.531Z,6.02
2023-04-07T02:08:48.225Z,6.04
2023-04-07T02:11:15.807Z,6.07
2023-04-07T02:13:42.334Z,6.04
2023-04-07T02:16:08.708Z,6.08
2023-04-07T02:18:35.061Z,6.04
2023-04-07T02:21:01.596Z,6.00
2023-04-07T02:23:27.945Z,5.95
2023-04-07T02:25:57.869Z,5.86
2023-04-07T02:28:24.287Z,5.79
2023-04-07T02:30:50.675Z,5.78
2023-04-07T02:33:17.149Z,5.86
2023-04-07T02:35:43.703Z,5.91
2023-04-07T02:38:10.442Z,5.93
2023-04-07T02:40:36.916Z,5.86
2023-04-07T02:43:05.072Z,5.83
2023-04-07T02:45:31.518Z,5.70
2023-04-07T02:47:57.946Z,5.60
2023-04-07T02:50:26.005Z,5.64
2023-04-07T02:52:52.425Z,5.54
2023-04-07T02:55:18.874Z,5.45
2023-04-07T02:57:45.459Z,5.32
2023-04-07T03:00:12.315Z,5.25
2023-04-07T03:02:38.776Z,5.16
2023-04-07T03:05:05.628Z,5.04
2023-04-07T03:07:32.022Z,4.97
2023-04-07T03:09:58.380Z,4.96
2023-04-07T03:12:24.745Z,4.90
2023-04-07T03:14:51.139Z,4.88
2023-04-07T03:17:17.494Z,4.88
2023-04-07T03:19:44.035Z,4.82
2023-04-07T03:22:10.377Z,4.75
2023-04-07T03:24:37.787Z,4.65
2023-04-07T03:27:04.245Z,4.61
2023-04-07T03:29:30.717Z,4.47
2023-04-07T03:31:57.101Z,4.41
2023-04-07T03:34:23.660Z,4.34
2023-04-07T03:36:49.999Z,4.22
2023-04-07T03:39:16.435Z,4.20
2023-04-07T03:41:42.833Z,4.09
2023-04-07T03:44:09.203Z,4.05
2023-04-07T03:46:35.639Z,3.94
2023-04-07T03:49:02.332Z,3.79
2023-04-07T03:51:28.785Z,3.79
2023-04-07T03:53:55.331Z,3.71
2023-04-07T03:56:22.629Z,3.69
2023-04-07T03:58:49.264Z,3.63
2023-04-07T04:01:16.022Z,3.55
2023-04-07T04:03:42.813Z,3.44
2023-04-07T04:06:09.261Z,3.34
2023-04-07T04:08:35.655Z,3.28
2023-04-07T04:11:02.289Z,3.22
2023-04-07T04:13:28.642Z,3.15
2023-04-07T04:15:55.156Z,3.14
2023-04-07T04:18:21.602Z,3.19
2023-04-07T04:20:48.740Z,3.19
2023-04-07T04:23:15.895Z,3.19
2023-04-07T04:25:42.445Z,3.15
2023-04-07T04:28:08.788Z,3.06
2023-04-07T04:30:35.359Z,2.99
2023-04-07T04:33:01.962Z,2.96
2023-04-07T04:35:28.444Z,2.90
2023-04-07T04:37:54.826Z,2.84
2023-04-07T04:40:21.677Z,2.79
2023-04-07T04:42:48.023Z,2.76
2023-04-07T04:45:14.413Z,2.76
2023-04-07T04:47:41.575Z,2.71
2023-04-07T04:50:08.317Z,2.68
2023-04-07T04:52:34.753Z,2.65
2023-04-07T04:55:01.393Z,2.62
2023-04-07T04:57:27.749Z,2.60
2023-04-07T04:59:54.070Z,2.58
2023-04-07T05:02:20.662Z,2.59
2023-04-07T05:04:47.226Z,2.60
2023-04-07T05:07:13.653Z,2.62
2023-04-07T05:09:40.502Z,2.57
2023-04-07T05:12:07.271Z,2.59
2023-04-07T05:14:33.629Z,2.59
2023-04-07T05:17:01.004Z,2.63
2023-04-07T05:19:29.535Z,2.63
2023-04-07T05:21:56.282Z,2.66
2023-04-07T05:24:22.891Z,2.65
2023-04-07T05:26:49.264Z,2.69
2023-04-07T05:29:15.610Z,2.73
2023-04-07T05:31:42.231Z,2.74
2023-04-07T05:34:08.633Z,2.76
2023-04-07T05:36:35.183Z,2.79
2023-04-07T05:39:01.824Z,2.80
2023-04-07T05:41:28.199Z,2.83
2023-04-07T05:43:54.543Z,2.83
2023-04-07T05:46:21.062Z,2.89
2023-04-07T05:48:47.476Z,2.95
2023-04-07T05:51:13.823Z,3.01
2023-04-07T05:53:40.401Z,3.13
2023-04-07T05:56:07.183Z,3.19
2023-04-07T05:58:33.600Z,3.24
2023-04-07T06:01:00.149Z,3.24
2023-04-07T06:03:26.585Z,3.24
2023-04-07T06:05:53.062Z,3.24
2023-04-07T06:08:19.496Z,3.26
2023-04-07T06:10:46.680Z,3.27
2023-04-07T06:13:13.232Z,3.29
2023-04-07T06:15:39.614Z,3.33
2023-04-07T06:18:06.037Z,3.37
2023-04-07T06:20:32.467Z,3.41
2023-04-07T06:22:59.055Z,3.46
2023-04-07T06:25:25.384Z,3.53
2023-04-07T06:27:51.810Z,3.61
2023-04-07T06:30:18.472Z,3.70
2023-04-07T06:32:44.832Z,3.82
2023-04-07T06:35:11.236Z,3.93
2023-04-07T06:37:39.362Z,4.03
2023-04-07T06:40:07.511Z,4.13
2023-04-07T06:42:33.872Z,4.25
2023-04-07T06:45:00.485Z,4.43
2023-04-07T06:47:26.856Z,4.63
2023-04-07T06:49:53.230Z,4.82
2023-04-07T06:52:19.768Z,5.01
2023-04-07T06:54:46.102Z,5.31
2023-04-07T06:57:12.450Z,5.50
2023-04-07T06:59:39.310Z,5.76
2023-04-07T07:02:07.544Z,5.91
2023-04-07T07:04:34.841Z,6.06
2023-04-07T07:07:01.614Z,6.14
2023-04-07T07:09:27.966Z,6.28
2023-04-07T07:11:54.316Z,6.31
2023-04-07T07:14:20.866Z,6.39
2023-04-07T07:16:47.215Z,6.51
2023-04-07T07:19:15.043Z,6.59
2023-04-07T07:21:41.645Z,6.68
2023-04-07T07:24:08.055Z,6.68
2023-04-07T07:26:34.453Z,6.65
2023-04-07T07:29:01.052Z,6.73
2023-04-07T07:31:27.444Z,6.78
2023-04-07T07:33:53.959Z,6.90
2023-04-07T07:36:20.573Z,6.93
2023-04-07T07:38:46.973Z,6.98
2023-04-07T07:41:13.328Z,7.11
2023-04-07T07:43:39.909Z,7.18
2023-04-07T07:46:06.259Z,7.27
2023-04-07T07:48:32.676Z,7.37
2023-04-07T07:50:59.055Z,7.45
2023-04-07T07:53:25.471Z,7.50
2023-04-07T07:55:51.881Z,7.58
2023-04-07T07:58:18.316Z,7.70
2023-04-07T08:00:44.758Z,7.72
2023-04-07T08:03:11.381Z,7.78
2023-04-07T08:05:38.061Z,7.88
2023-04-07T08:08:04.448Z,7.95
2023-04-07T08:10:30.947Z,8.00
2023-04-07T08:12:57.579Z,8.02
2023-04-07T08:15:23.948Z,8.08
2023-04-07T08:17:50.408Z,8.20
2023-04-07T08:20:17.473Z,8.27
2023-04-07T08:22:43.902Z,8.29
2023-04-07T08:25:11.038Z,8.28
2023-04-07T08:27:37.620Z,8.28
2023-04-07T08:30:06.837Z,8.41
2023-04-07T08:32:37.792Z,8.62
2023-04-07T08:35:04.556Z,8.77
2023-04-07T08:37:31.689Z,8.82
2023-04-07T08:39:58.042Z,8.87
2023-04-07T08:42:29.694Z,8.88
2023-04-07T08:45:06.273Z,8.91
2023-04-07T08:47:36.137Z,8.85
2023-04-07T08:50:05.034Z,8.93
2023-04-07T08:52:46.522Z,8.99
2023-04-07T08:55:13.045Z,9.08
2023-04-07T08:57:39.468Z,9.03
2023-04-07T09:00:06.437Z,9.21
2023-04-07T09:02:45.778Z,9.24
2023-04-07T09:05:12.857Z,9.35
2023-04-07T09:07:40.308Z,9.39
2023-04-07T09:10:07.263Z,9.42
2023-04-07T09:12:33.832Z,9.52
2023-04-07T09:15:00.314Z,9.53
2023-04-07T09:17:27.192Z,9.59
2023-04-07T09:19:57.053Z,9.65
2023-04-07T09:22:42.726Z,9.90
2023-04-07T09:25:13.707Z,9.90
2023-04-07T09:27:40.130Z,10.02
2023-04-07T09:30:15.028Z,10.05
2023-04-07T09:32:41.672Z,10.12
2023-04-07T09:35:08.533Z,10.20
2023-04-07T09:37:34.937Z,10.13
2023-04-07T09:40:01.667Z,10.18
2023-04-07T09:42:32.215Z,10.16
2023-04-07T09:45:00.439Z,10.17
2023-04-07T09:47:31.392Z,10.20
2023-04-07T09:49:58.260Z,10.26
2023-04-07T09:52:53.820Z,10.30
2023-04-07T09:55:21.015Z,10.45
2023-04-07T09:57:49.153Z,10.50
2023-04-07T10:00:15.812Z,10.54
2023-04-07T10:02:42.267Z,10.58
2023-04-07T10:05:09.812Z,10.68
2023-04-07T10:07:36.308Z,10.73
2023-04-07T10:10:08.165Z,10.88
2023-04-07T10:12:35.272Z,11.13
2023-04-07T10:15:02.165Z,11.23
2023-04-07T10:17:28.911Z,11.21
2023-04-07T10:19:57.770Z,11.18
2023-04-07T10:22:24.797Z,11.26
2023-04-07T10:24:55.281Z,11.22
2023-04-07T10:27:28.175Z,11.30
2023-04-07T10:29:54.824Z,11.36
2023-04-07T10:32:21.333Z,11.39
2023-04-07T10:34:48.565Z,11.58
2023-04-07T10:37:17.632Z,11.67
2023-04-07T10:39:44.022Z,11.72
2023-04-07T10:42:39.959Z,11.72
2023-04-07T10:45:08.861Z,11.82
2023-04-07T10:47:38.866Z,11.87
2023-04-07T10:50:17.157Z,11.94
2023-04-07T10:52:44.201Z,12.11
2023-04-07T10:55:41.995Z,12.42
2023-04-07T10:58:30.732Z,12.51
2023-04-07T11:00:57.292Z,12.66
2023-04-07T11:03:24.459Z,12.90
2023-04-07T11:05:50.933Z,13.09
2023-04-07T11:08:36.517Z,13.43
2023-04-07T11:11:08.872Z,13.70
2023-04-07T11:13:44.302Z,13.51
2023-04-07T11:16:10.677Z,13.91
2023-04-07T11:18:37.390Z,14.29
2023-04-07T11:21:05.935Z,14.20
2023-04-07T11:23:39.338Z,14.89
2023-04-07T11:26:05.929Z,15.29
2023-04-07T11:28:32.345Z,15.59
2023-04-07T11:31:00.109Z,15.58
2023-04-07T11:33:28.233Z,14.81
2023-04-07T11:35:59.300Z,14.72
2023-04-07T11:38:27.312Z,14.48
2023-04-07T11:40:54.713Z,14.69
2023-04-07T11:43:25.920Z,14.81
2023-04-07T11:46:07.590Z,15.18
2023-04-07T11:48:34.762Z,15.50
2023-04-07T11:51:01.607Z,15.29
2023-04-07T11:53:34.869Z,15.16
2023-04-07T11:56:10.432Z,15.66
2023-04-07T11:58:37.045Z,15.19
2023-04-07T12:01:11.545Z,15.42
2023-04-07T12:03:38.366Z,16.00
2023-04-07T12:06:05.027Z,15.62
2023-04-07T12:08:41.681Z,16.64
2023-04-07T12:11:09.137Z,16.83
2023-04-07T12:13:36.557Z,16.12
2023-04-07T12:16:03.231Z,16.21
2023-04-07T12:18:29.720Z,16.67
2023-04-07T12:20:56.400Z,16.87
2023-04-07T12:23:22.893Z,17.46
2023-04-07T12:25:49.242Z,17.53
2023-04-07T12:28:15.647Z,17.53
2023-04-07T12:30:42.422Z,17.06
2023-04-07T12:33:08.792Z,17.14
2023-04-07T12:35:35.376Z,17.41
2023-04-07T12:38:03.019Z,17.03
2023-04-07T12:40:29.601Z,17.73
2023-04-07T12:42:58.209Z,18.39
2023-04-07T12:45:24.839Z,18.67
2023-04-07T12:47:51.551Z,17.41
2023-04-07T12:50:18.616Z,17.71
2023-04-07T12:52:45.074Z,18.09
2023-04-07T12:55:11.612Z,18.57
2023-04-07T12:57:38.656Z,18.01
2023-04-07T13:00:05.949Z,17.67
2023-04-07T13:02:32.693Z,16.60
2023-04-07T13:04:59.137Z,17.12
2023-04-07T13:07:25.557Z,16.74
2023-04-07T13:09:51.944Z,17.25
2023-04-07T13:12:18.313Z,17.41
2023-04-07T13:14:56.986Z,18.17
2023-04-07T13:17:26.361Z,18.24
2023-04-07T13:19:52.951Z,18.05
2023-04-07T13:22:22.117Z,18.79
2023-04-07T13:24:49.681Z,19.29
2023-04-07T13:27:16.105Z,19.76
2023-04-07T13:29:42.488Z,19.21
2023-04-07T13:32:09.412Z,19.53
2023-04-07T13:34:36.503Z,19.69
2023-04-07T13:37:06.123Z,19.03
2023-04-07T13:39:32.697Z,17.99
2023-04-07T13:41:59.290Z,18.01
2023-04-07T13:44:26.355Z,17.25
2023-04-07T13:46:53.230Z,18.39
2023-04-07T13:49:19.695Z,18.97
2023-04-07T13:51:46.176Z,18.88
2023-04-07T13:54:12.594Z,18.31
2023-04-07T13:56:38.986Z,17.96
2023-04-07T13:59:06.030Z,19.06
2023-04-07T14:01:33.874Z,17.95
2023-04-07T14:04:01.215Z,18.96
2023-04-07T14:06:27.736Z,19.22
2023-04-07T14:08:54.341Z,18.85
2023-04-07T14:11:22.704Z,18.50
2023-04-07T14:13:49.585Z,18.08
2023-04-07T14:16:16.658Z,18.79
2023-04-07T14:18:43.574Z,18.47
2023-04-07T14:21:10.059Z,18.35
2023-04-07T14:23:37.955Z,18.26
2023-04-07T14:26:04.647Z,19.06
2023-04-07T14:28:31.595Z,19.55
2023-04-07T14:30:57.994Z,19.05
2023-04-07T14:33:24.755Z,19.32
2023-04-07T14:35:51.569Z,19.77
2023-04-07T14:38:17.965Z,18.91
2023-04-07T14:40:45.244Z,18.56
2023-04-07T14:43:12.216Z,17.98
2023-04-07T14:45:38.720Z,18.60
2023-04-07T14:48:05.907Z,19.30
2023-04-07T14:50:35.097Z,19.06
2023-04-07T14:53:01.518Z,17.57
2023-04-07T14:55:27.929Z,17.02
2023-04-07T14:57:54.307Z,17.88
2023-04-07T15:00:20.696Z,17.82
2023-04-07T15:02:47.312Z,18.08
2023-04-07T15:05:13.820Z,17.50
2023-04-07T15:07:40.338Z,18.33
2023-04-07T15:10:07.197Z,17.66
2023-04-07T15:12:33.538Z,17.74
2023-04-07T15:15:00.448Z,17.66
2023-04-07T15:17:40.023Z,17.12
2023-04-07T15:20:10.115Z,17.69
2023-04-07T15:22:36.549Z,17.55
2023-04-07T15:25:03.578Z,17.53
2023-04-07T15:27:30.182Z,18.09
2023-04-07T15:29:56.638Z,17.98
2023-04-07T15:32:22.994Z,17.61
2023-04-07T15:34:49.605Z,16.74
2023-04-07T15:37:17.282Z,16.37
2023-04-07T15:39:43.724Z,16.24
2023-04-07T15:42:12.429Z,16.36
2023-04-07T15:44:39.564Z,16.06
2023-04-07T15:47:06.671Z,15.81
2023-04-07T15:49:33.351Z,15.63
2023-04-07T15:52:01.405Z,15.81
2023-04-07T15:54:27.757Z,15.81
2023-04-07T15:56:54.180Z,16.24
2023-04-07T15:59:20.557Z,15.68
2023-04-07T16:01:47.068Z,15.94
2023-04-07T16:04:13.536Z,15.61
2023-04-07T16:06:40.038Z,15.24
2023-04-07T16:09:06.417Z,14.63
2023-04-07T16:11:32.771Z,14.18
2023-04-07T16:13:59.173Z,14.30
2023-04-07T16:16:25.612Z,14.79
2023-04-07T16:18:51.995Z,14.97
2023-04-07T16:21:18.377Z,14.58
2023-04-07T16:23:44.709Z,14.90
2023-04-07T16:26:11.085Z,15.15
2023-04-07T16:28:39.204Z,15.06
2023-04-07T16:31:08.597Z,15.04
2023-04-07T16:33:36.238Z,14.81
2023-04-07T16:36:02.672Z,15.00
2023-04-07T16:38:29.114Z,14.82
2023-04-07T16:41:03.969Z,14.20
2023-04-07T16:43:31.334Z,13.79
2023-04-07T16:45:59.922Z,13.67
2023-04-07T16:48:26.656Z,13.39
2023-04-07T16:50:53.254Z,13.33
2023-04-07T16:53:21.318Z,12.91
2023-04-07T16:55:48.101Z,12.20
2023-04-07T16:58:18.738Z,12.13
2023-04-07T17:00:45.735Z,12.00
2023-04-07T17:03:13.764Z,11.68
2023-04-07T17:05:40.411Z,11.84
2023-04-07T17:08:06.758Z,12.00
2023-04-07T17:10:33.102Z,11.84
2023-04-07T17:12:59.536Z,11.72
2023-04-07T17:15:25.959Z,11.56
2023-04-07T17:17:52.620Z,11.41
2023-04-07T17:20:19.438Z,11.37
2023-04-07T17:22:46.602Z,11.14
2023-04-07T17:25:12.961Z,11.13
2023-04-07T17:27:39.557Z,10.89
2023-04-07T17:30:07.626Z,10.89
2023-04-07T17:32:34.028Z,10.89
2023-04-07T17:35:00.629Z,10.93
2023-04-07T17:37:27.023Z,10.81
2023-04-07T17:39:53.377Z,10.65
2023-04-07T17:42:19.751Z,10.64
2023-04-07T17:44:46.924Z,10.68
2023-04-07T17:47:13.352Z,10.51
2023-04-07T17:49:40.495Z,10.42
2023-04-07T17:52:07.150Z,10.50
2023-04-07T17:54:34.482Z,10.56
2023-04-07T17:57:01.119Z,10.47
2023-04-07T17:59:27.508Z,10.31
2023-04-07T18:01:53.988Z,10.31
2023-04-07T18:04:21.153Z,10.31
2023-04-07T18:06:47.658Z,10.21
2023-04-07T18:09:14.689Z,10.06
2023-04-07T18:11:41.616Z,10.16
2023-04-07T18:14:07.954Z,9.97
2023-04-07T18:16:34.475Z,9.92
2023-04-07T18:19:01.710Z,9.90
2023-04-07T18:21:29.485Z,9.64
2023-04-07T18:23:55.860Z,9.58
2023-04-07T18:26:22.477Z,9.51
2023-04-07T18:28:48.902Z,9.40
2023-04-07T18:31:15.861Z,9.15
2023-04-07T18:33:42.274Z,9.19
2023-04-07T18:36:08.809Z,9.15
2023-04-07T18:38:35.765Z,9.17
2023-04-07T18:41:02.160Z,9.05
2023-04-07T18:43:28.589Z,8.91
2023-04-07T18:45:55.018Z,8.87
2023-04-07T18:48:21.652Z,8.74
2023-04-07T18:50:52.215Z,8.76
2023-04-07T18:53:21.789Z,8.78
2023-04-07T18:55:48.529Z,8.78
2023-04-07T18:58:15.053Z,8.77
2023-04-07T19:00:42.047Z,8.42
2023-04-07T19:03:08.670Z,8.44
2023-04-07T19:05:37.139Z,8.45
2023-04-07T19:08:03.598Z,8.29
2023-04-07T19:10:30.049Z,8.16
2023-04-07T19:12:56.412Z,8.09
2023-04-07T19:15:22.748Z,7.95
2023-04-07T19:17:49.566Z,7.91
2023-04-07T19:20:16.282Z,7.84
2023-04-07T19:22:43.908Z,7.80
2023-04-07T19:25:10.581Z,7.76
2023-04-07T19:27:37.840Z,7.65
2023-04-07T19:30:04.556Z,7.63
2023-04-07T19:32:31.287Z,7.65
2023-04-07T19:34:57.652Z,7.63
2023-04-07T19:37:24.041Z,7.66
2023-04-07T19:40:01.588Z,7.61
2023-04-07T19:42:29.651Z,7.72
2023-04-07T19:44:58.359Z,7.58
2023-04-07T19:47:24.998Z,7.59
2023-04-07T19:49:51.414Z,7.55
2023-04-07T19:52:18.039Z,7.48
2023-04-07T19:54:44.407Z,7.55
2023-04-07T19:57:11.040Z,7.59
2023-04-07T19:59:37.581Z,7.50
2023-04-07T20:02:04.009Z,7.56
2023-04-07T20:04:30.395Z,7.48
2023-04-07T20:06:56.763Z,7.42
2023-04-07T20:09:25.655Z,7.43
2023-04-07T20:11:52.170Z,7.42
2023-04-07T20:14:18.652Z,7.46
2023-04-07T20:16:45.152Z,7.52
2023-04-07T20:19:11.628Z,7.50
2023-04-07T20:21:38.072Z,7.59
2023-04-07T20:24:04.540Z,7.52
2023-04-07T20:26:30.927Z,7.40
2023-04-07T20:28:57.426Z,7.42
2023-04-07T20:31:23.897Z,7.37
2023-04-07T20:33:50.488Z,7.45
2023-04-07T20:36:18.076Z,7.44
2023-04-07T20:38:44.605Z,7.49
2023-04-07T20:41:12.723Z,7.45
2023-04-07T20:43:39.135Z,7.27
2023-04-07T20:46:06.040Z,7.30
2023-04-07T20:48:32.915Z,7.37
2023-04-07T20:50:59.527Z,7.35
2023-04-07T20:53:26.280Z,7.35
2023-04-07T20:55:52.703Z,7.45
2023-04-07T20:58:19.154Z,7.39
2023-04-07T21:00:46.269Z,7.49
2023-04-07T21:03:13.305Z,7.42
2023-04-07T21:05:44.835Z,7.30
2023-04-07T21:08:13.226Z,7.33
2023-04-07T21:10:41.139Z,7.24
2023-04-07T21:13:07.540Z,7.20
2023-04-07T21:15:35.155Z,7.09
2023-04-07T21:18:03.767Z,7.08
2023-04-07T21:20:31.194Z,7.17
2023-04-07T21:22:57.583Z,7.18
2023-04-07T21:25:23.947Z,7.08
2023-04-07T21:27:50.619Z,7.14
2023-04-07T21:30:17.956Z,7.21
2023-04-07T21:32:47.468Z,7.17
2023-04-07T21:35:13.975Z,7.08
2023-04-07T21:37:40.849Z,7.19
2023-04-07T21:40:07.849Z,7.01
2023-04-07T21:42:34.241Z,7.10
2023-04-07T21:45:00.712Z,7.15
2023-04-07T21:47:27.118Z,7.08
2023-04-07T21:49:53.680Z,7.01
2023-04-07T21:52:20.631Z,7.11
2023-04-07T21:54:47.477Z,6.96
2023-04-07T21:57:13.883Z,6.97
2023-04-07T21:59:40.442Z,7.02
2023-04-07T22:02:06.982Z,7.06
2023-04-07T22:04:33.442Z,7.02
2023-04-07T22:07:00.630Z,6.82
2023-04-07T22:09:27.235Z,6.82
2023-04-07T22:11:54.143Z,6.83
2023-04-07T22:14:24.778Z,6.83
2023-04-07T22:16:51.925Z,6.75
2023-04-07T22:19:18.950Z,6.85
2023-04-07T22:21:45.638Z,6.88
2023-04-07T22:24:12.003Z,6.88
2023-04-07T22:26:38.626Z,6.84
2023-04-07T22:29:05.007Z,6.76
2023-04-07T22:31:31.498Z,6.75
2023-04-07T22:33:58.080Z,6.71
2023-04-07T22:36:24.513Z,6.75
2023-04-07T22:38:51.096Z,6.75
2023-04-07T22:41:17.720Z,6.68
2023-04-07T22:43:44.077Z,6.72
2023-04-07T22:46:10.423Z,6.66
2023-04-07T22:48:36.872Z,6.65
2023-04-07T22:51:03.321Z,6.67
2023-04-07T22:53:29.761Z,6.70
2023-04-07T22:55:56.333Z,6.58
2023-04-07T22:58:22.666Z,6.64
2023-04-07T23:00:49.146Z,6.69
2023-04-07T23:03:15.771Z,6.68
2023-04-07T23:05:42.195Z,6.60
2023-04-07T23:08:08.591Z,6.49
2023-04-07T23:10:35.128Z,6.53
2023-04-07T23:13:01.785Z,6.59
2023-04-07T23:15:28.152Z,6.71
2023-04-07T23:17:54.955Z,6.61
2023-04-07T23:20:21.309Z,6.63
2023-04-07T23:22:47.673Z,6.64
2023-04-07T23:25:14.064Z,6.63
2023-04-07T23:27:40.579Z,6.68
2023-04-07T23:30:07.699Z,6.67
2023-04-07T23:32:34.491Z,6.63
2023-04-07T23:35:01.525Z,6.64
2023-04-07T23:37:27.874Z,6.70
2023-04-07T23:39:54.433Z,6.68
2023-04-07T23:42:20.848Z,6.70
2023-04-07T23:44:47.259Z,6.73
2023-04-07T23:47:13.653Z,6.65
2023-04-07T23:49:40.424Z,6.61
2023-04-07T23:52:06.788Z,6.51
2023-04-07T23:54:33.406Z,6.47
2023-04-07T23:56:59.747Z,6.49
2023-04-07T23:59:26.127Z,6.42
